sensor_id;sensor_type;location;lat;lon;timestamp;P1;durP1;ratioP1;P2;durP2;ratioP2
73940;SDS011;62294;48.554;10.202;2023-07-09T00:00:48;8.50;;;3.60;;
73940;SDS011;62294;48.554;10.202;2023-07-09T00:03:15;4.68;;;2.78;;
73940;SDS011;62294;48.554;10.202;2023-07-09T00:05:42;7.00;;;3.25;;
73940;SDS011;62294;48.554;10.202;2023-07-09T00:08:21;4.03;;;2.78;;
73940;SDS011;62294;48.554;10.202;2023-07-09T00:10:53;8.65;;;3.38;;
73940;SDS011;62294;48.554;10.202;2023-07-09T00:13:22;5.25;;;2.90;;
73940;SDS011;62294;48.554;10.202;2023-07-09T00:15:50;6.10;;;3.50;;
73940;SDS011;62294;48.554;10.202;2023-07-09T00:18:17;5.97;;;2.95;;
73940;SDS011;62294;48.554;10.202;2023-07-09T00:20:44;5.05;;;3.03;;
73940;SDS011;62294;48.554;10.202;2023-07-09T00:23:14;6.30;;;3.17;;
73940;SDS011;62294;48.554;10.202;2023-07-09T00:25:40;6.25;;;3.38;;
73940;SDS011;62294;48.554;10.202;2023-07-09T00:28:14;5.53;;;3.42;;
73940;SDS011;62294;48.554;10.202;2023-07-09T00:30:42;5.50;;;3.15;;
73940;SDS011;62294;48.554;10.202;2023-07-09T00:33:13;8.48;;;3.20;;
73940;SDS011;62294;48.554;10.202;2023-07-09T00:35:42;5.22;;;3.47;;
73940;SDS011;62294;48.554;10.202;2023-07-09T00:38:21;6.75;;;3.50;;
73940;SDS011;62294;48.554;10.202;2023-07-09T00:43:27;5.50;;;2.85;;
73940;SDS011;62294;48.554;10.202;2023-07-09T00:46:14;7.22;;;3.60;;
73940;SDS011;62294;48.554;10.202;2023-07-09T00:51:11;5.47;;;2.80;;
73940;SDS011;62294;48.554;10.202;2023-07-09T00:53:39;4.00;;;2.88;;
73940;SDS011;62294;48.554;10.202;2023-07-09T00:56:13;6.03;;;2.80;;
73940;SDS011;62294;48.554;10.202;2023-07-09T00:58:42;7.55;;;3.25;;
73940;SDS011;62294;48.554;10.202;2023-07-09T01:01:15;7.30;;;3.72;;
73940;SDS011;62294;48.554;10.202;2023-07-09T01:03:45;6.05;;;3.13;;
73940;SDS011;62294;48.554;10.202;2023-07-09T01:06:15;4.75;;;3.10;;
73940;SDS011;62294;48.554;10.202;2023-07-09T01:08:47;5.50;;;3.15;;
73940;SDS011;62294;48.554;10.202;2023-07-09T01:11:20;5.55;;;3.10;;
73940;SDS011;62294;48.554;10.202;2023-07-09T01:13:49;5.05;;;2.83;;
73940;SDS011;62294;48.554;10.202;2023-07-09T01:16:25;6.88;;;3.33;;
73940;SDS011;62294;48.554;10.202;2023-07-09T01:18:54;8.63;;;3.25;;
73940;SDS011;62294;48.554;10.202;2023-07-09T01:21:21;5.80;;;3.35;;
73940;SDS011;62294;48.554;10.202;2023-07-09T01:23:48;6.63;;;3.53;;
73940;SDS011;62294;48.554;10.202;2023-07-09T01:26:18;5.15;;;3.08;;
73940;SDS011;62294;48.554;10.202;2023-07-09T01:28:51;6.55;;;3.10;;
73940;SDS011;62294;48.554;10.202;2023-07-09T01:31:23;4.68;;;2.45;;
73940;SDS011;62294;48.554;10.202;2023-07-09T01:33:49;5.90;;;3.25;;
73940;SDS011;62294;48.554;10.202;2023-07-09T01:36:18;5.07;;;3.15;;
73940;SDS011;62294;48.554;10.202;2023-07-09T01:38:50;5.65;;;3.53;;
73940;SDS011;62294;48.554;10.202;2023-07-09T01:41:18;5.15;;;2.72;;
73940;SDS011;62294;48.554;10.202;2023-07-09T01:43:45;4.53;;;3.20;;
73940;SDS011;62294;48.554;10.202;2023-07-09T01:46:12;5.65;;;3.22;;
73940;SDS011;62294;48.554;10.202;2023-07-09T01:48:40;6.35;;;3.13;;
73940;SDS011;62294;48.554;10.202;2023-07-09T01:51:07;4.30;;;2.85;;
73940;SDS011;62294;48.554;10.202;2023-07-09T01:53:36;8.05;;;3.15;;
73940;SDS011;62294;48.554;10.202;2023-07-09T01:56:05;7.20;;;3.70;;
73940;SDS011;62294;48.554;10.202;2023-07-09T01:58:33;4.93;;;3.25;;
73940;SDS011;62294;48.554;10.202;2023-07-09T02:01:00;5.30;;;2.67;;
73940;SDS011;62294;48.554;10.202;2023-07-09T02:03:28;5.90;;;3.13;;
73940;SDS011;62294;48.554;10.202;2023-07-09T02:05:55;6.38;;;3.47;;
73940;SDS011;62294;48.554;10.202;2023-07-09T02:08:23;6.20;;;2.95;;
73940;SDS011;62294;48.554;10.202;2023-07-09T02:10:50;6.40;;;3.35;;
73940;SDS011;62294;48.554;10.202;2023-07-09T02:13:17;5.15;;;3.47;;
73940;SDS011;62294;48.554;10.202;2023-07-09T02:15:44;6.93;;;3.45;;
73940;SDS011;62294;48.554;10.202;2023-07-09T02:18:11;6.25;;;3.38;;
73940;SDS011;62294;48.554;10.202;2023-07-09T02:20:38;5.65;;;2.97;;
73940;SDS011;62294;48.554;10.202;2023-07-09T02:23:05;6.82;;;3.50;;
73940;SDS011;62294;48.554;10.202;2023-07-09T02:25:33;5.22;;;3.03;;
73940;SDS011;62294;48.554;10.202;2023-07-09T02:27:59;4.88;;;2.70;;
73940;SDS011;62294;48.554;10.202;2023-07-09T02:30:26;8.13;;;3.30;;
73940;SDS011;62294;48.554;10.202;2023-07-09T02:32:53;6.40;;;3.20;;
73940;SDS011;62294;48.554;10.202;2023-07-09T02:35:20;6.13;;;3.38;;
73940;SDS011;62294;48.554;10.202;2023-07-09T02:37:47;7.70;;;3.42;;
73940;SDS011;62294;48.554;10.202;2023-07-09T02:40:14;6.05;;;3.15;;
73940;SDS011;62294;48.554;10.202;2023-07-09T02:42:41;9.15;;;3.83;;
73940;SDS011;62294;48.554;10.202;2023-07-09T02:45:08;6.80;;;3.22;;
73940;SDS011;62294;48.554;10.202;2023-07-09T02:47:35;6.18;;;3.03;;
73940;SDS011;62294;48.554;10.202;2023-07-09T02:50:02;9.23;;;3.97;;
73940;SDS011;62294;48.554;10.202;2023-07-09T02:52:29;6.32;;;3.30;;
73940;SDS011;62294;48.554;10.202;2023-07-09T02:54:56;5.53;;;3.03;;
73940;SDS011;62294;48.554;10.202;2023-07-09T02:57:22;5.93;;;2.90;;
73940;SDS011;62294;48.554;10.202;2023-07-09T02:59:48;5.65;;;3.10;;
73940;SDS011;62294;48.554;10.202;2023-07-09T03:02:15;7.97;;;3.05;;
73940;SDS011;62294;48.554;10.202;2023-07-09T03:04:42;4.15;;;2.92;;
73940;SDS011;62294;48.554;10.202;2023-07-09T03:07:09;5.57;;;2.80;;
73940;SDS011;62294;48.554;10.202;2023-07-09T03:09:36;6.97;;;2.78;;
73940;SDS011;62294;48.554;10.202;2023-07-09T03:12:02;5.10;;;3.08;;
73940;SDS011;62294;48.554;10.202;2023-07-09T03:14:29;5.63;;;2.75;;
73940;SDS011;62294;48.554;10.202;2023-07-09T03:16:56;5.78;;;3.00;;
73940;SDS011;62294;48.554;10.202;2023-07-09T03:19:23;6.15;;;3.53;;
73940;SDS011;62294;48.554;10.202;2023-07-09T03:21:50;5.07;;;3.08;;
73940;SDS011;62294;48.554;10.202;2023-07-09T03:24:16;8.25;;;3.60;;
73940;SDS011;62294;48.554;10.202;2023-07-09T03:26:45;6.95;;;2.97;;
73940;SDS011;62294;48.554;10.202;2023-07-09T03:29:12;4.38;;;2.33;;
73940;SDS011;62294;48.554;10.202;2023-07-09T03:31:39;5.63;;;3.20;;
73940;SDS011;62294;48.554;10.202;2023-07-09T03:34:06;5.05;;;2.80;;
73940;SDS011;62294;48.554;10.202;2023-07-09T03:36:33;7.65;;;3.35;;
73940;SDS011;62294;48.554;10.202;2023-07-09T03:38:59;7.35;;;3.20;;
73940;SDS011;62294;48.554;10.202;2023-07-09T03:41:26;4.93;;;3.03;;
73940;SDS011;62294;48.554;10.202;2023-07-09T03:43:53;7.68;;;3.15;;
73940;SDS011;62294;48.554;10.202;2023-07-09T03:46:19;5.40;;;2.90;;
73940;SDS011;62294;48.554;10.202;2023-07-09T03:48:46;4.38;;;2.55;;
73940;SDS011;62294;48.554;10.202;2023-07-09T03:51:13;4.07;;;2.35;;
73940;SDS011;62294;48.554;10.202;2023-07-09T03:53:39;6.07;;;3.28;;
73940;SDS011;62294;48.554;10.202;2023-07-09T03:56:06;4.72;;;3.00;;
73940;SDS011;62294;48.554;10.202;2023-07-09T03:58:34;6.47;;;2.83;;
73940;SDS011;62294;48.554;10.202;2023-07-09T04:01:01;7.53;;;3.53;;
73940;SDS011;62294;48.554;10.202;2023-07-09T04:03:28;4.93;;;3.08;;
73940;SDS011;62294;48.554;10.202;2023-07-09T04:05:54;5.82;;;3.25;;
73940;SDS011;62294;48.554;10.202;2023-07-09T04:08:21;6.35;;;3.05;;
73940;SDS011;62294;48.554;10.202;2023-07-09T04:10:47;5.93;;;3.13;;
73940;SDS011;62294;48.554;10.202;2023-07-09T04:13:14;4.97;;;3.33;;
73940;SDS011;62294;48.554;10.202;2023-07-09T04:15:41;5.63;;;3.53;;
73940;SDS011;62294;48.554;10.202;2023-07-09T04:18:07;7.50;;;3.17;;
73940;SDS011;62294;48.554;10.202;2023-07-09T04:20:34;4.75;;;2.88;;
73940;SDS011;62294;48.554;10.202;2023-07-09T04:23:01;5.93;;;3.25;;
73940;SDS011;62294;48.554;10.202;2023-07-09T04:25:28;8.18;;;3.58;;
73940;SDS011;62294;48.554;10.202;2023-07-09T04:27:55;8.20;;;2.83;;
73940;SDS011;62294;48.554;10.202;2023-07-09T04:30:22;6.07;;;3.50;;
73940;SDS011;62294;48.554;10.202;2023-07-09T04:32:48;5.85;;;3.17;;
73940;SDS011;62294;48.554;10.202;2023-07-09T04:35:16;4.28;;;2.88;;
73940;SDS011;62294;48.554;10.202;2023-07-09T04:37:43;4.43;;;3.00;;
73940;SDS011;62294;48.554;10.202;2023-07-09T04:40:09;5.68;;;2.75;;
73940;SDS011;62294;48.554;10.202;2023-07-09T04:42:38;5.82;;;3.20;;
73940;SDS011;62294;48.554;10.202;2023-07-09T04:45:06;6.13;;;2.88;;
73940;SDS011;62294;48.554;10.202;2023-07-09T04:47:34;5.90;;;3.30;;
73940;SDS011;62294;48.554;10.202;2023-07-09T04:50:02;4.50;;;3.28;;
73940;SDS011;62294;48.554;10.202;2023-07-09T04:52:29;6.30;;;3.22;;
73940;SDS011;62294;48.554;10.202;2023-07-09T04:54:57;5.03;;;3.28;;
73940;SDS011;62294;48.554;10.202;2023-07-09T04:57:24;6.35;;;3.40;;
73940;SDS011;62294;48.554;10.202;2023-07-09T04:59:52;5.90;;;3.33;;
73940;SDS011;62294;48.554;10.202;2023-07-09T05:02:19;5.88;;;3.33;;
73940;SDS011;62294;48.554;10.202;2023-07-09T05:04:46;6.00;;;3.33;;
73940;SDS011;62294;48.554;10.202;2023-07-09T05:07:12;8.70;;;3.63;;
73940;SDS011;62294;48.554;10.202;2023-07-09T05:09:39;5.43;;;3.38;;
73940;SDS011;62294;48.554;10.202;2023-07-09T05:12:06;6.53;;;3.80;;
73940;SDS011;62294;48.554;10.202;2023-07-09T05:14:33;6.70;;;3.53;;
73940;SDS011;62294;48.554;10.202;2023-07-09T05:16:59;5.63;;;3.40;;
73940;SDS011;62294;48.554;10.202;2023-07-09T05:19:26;5.35;;;3.70;;
73940;SDS011;62294;48.554;10.202;2023-07-09T05:21:53;6.18;;;3.72;;
73940;SDS011;62294;48.554;10.202;2023-07-09T05:24:19;7.18;;;3.33;;
73940;SDS011;62294;48.554;10.202;2023-07-09T05:26:46;5.90;;;3.20;;
73940;SDS011;62294;48.554;10.202;2023-07-09T05:29:12;8.55;;;3.47;;
73940;SDS011;62294;48.554;10.202;2023-07-09T05:31:39;8.43;;;3.85;;
73940;SDS011;62294;48.554;10.202;2023-07-09T05:34:08;6.93;;;2.92;;
73940;SDS011;62294;48.554;10.202;2023-07-09T05:36:35;8.13;;;3.55;;
73940;SDS011;62294;48.554;10.202;2023-07-09T05:39:02;7.13;;;3.60;;
73940;SDS011;62294;48.554;10.202;2023-07-09T05:41:28;7.55;;;3.85;;
73940;SDS011;62294;48.554;10.202;2023-07-09T05:43:55;10.48;;;4.28;;
73940;SDS011;62294;48.554;10.202;2023-07-09T05:46:22;6.72;;;3.67;;
73940;SDS011;62294;48.554;10.202;2023-07-09T05:48:50;7.22;;;3.95;;
73940;SDS011;62294;48.554;10.202;2023-07-09T05:51:16;9.52;;;4.45;;
73940;SDS011;62294;48.554;10.202;2023-07-09T05:53:43;7.18;;;3.80;;
73940;SDS011;62294;48.554;10.202;2023-07-09T05:56:09;8.70;;;4.97;;
73940;SDS011;62294;48.554;10.202;2023-07-09T05:58:36;7.93;;;4.07;;
73940;SDS011;62294;48.554;10.202;2023-07-09T06:01:03;7.88;;;4.40;;
73940;SDS011;62294;48.554;10.202;2023-07-09T06:03:30;8.60;;;4.45;;
73940;SDS011;62294;48.554;10.202;2023-07-09T06:05:57;9.13;;;4.47;;
73940;SDS011;62294;48.554;10.202;2023-07-09T06:08:26;8.90;;;4.30;;
73940;SDS011;62294;48.554;10.202;2023-07-09T06:10:58;7.82;;;4.55;;
73940;SDS011;62294;48.554;10.202;2023-07-09T06:13:27;8.63;;;4.70;;
73940;SDS011;62294;48.554;10.202;2023-07-09T06:15:57;6.97;;;4.18;;
73940;SDS011;62294;48.554;10.202;2023-07-09T06:18:25;10.43;;;4.43;;
73940;SDS011;62294;48.554;10.202;2023-07-09T06:20:57;9.98;;;4.68;;
73940;SDS011;62294;48.554;10.202;2023-07-09T06:23:26;7.82;;;4.60;;
73940;SDS011;62294;48.554;10.202;2023-07-09T06:25:54;7.28;;;4.65;;
73940;SDS011;62294;48.554;10.202;2023-07-09T06:28:24;9.57;;;4.57;;
73940;SDS011;62294;48.554;10.202;2023-07-09T06:30:52;8.35;;;4.88;;
73940;SDS011;62294;48.554;10.202;2023-07-09T06:33:19;7.95;;;4.45;;
73940;SDS011;62294;48.554;10.202;2023-07-09T06:35:46;8.55;;;4.30;;
73940;SDS011;62294;48.554;10.202;2023-07-09T06:38:17;6.78;;;4.18;;
73940;SDS011;62294;48.554;10.202;2023-07-09T06:40:44;9.40;;;4.60;;
73940;SDS011;62294;48.554;10.202;2023-07-09T06:43:11;7.47;;;4.47;;
73940;SDS011;62294;48.554;10.202;2023-07-09T06:45:38;7.15;;;4.47;;
73940;SDS011;62294;48.554;10.202;2023-07-09T06:48:05;7.50;;;4.45;;
73940;SDS011;62294;48.554;10.202;2023-07-09T06:50:34;7.70;;;4.03;;
73940;SDS011;62294;48.554;10.202;2023-07-09T06:53:02;7.10;;;4.50;;
73940;SDS011;62294;48.554;10.202;2023-07-09T06:55:29;8.88;;;4.43;;
73940;SDS011;62294;48.554;10.202;2023-07-09T06:57:57;6.03;;;3.92;;
73940;SDS011;62294;48.554;10.202;2023-07-09T07:00:23;7.88;;;4.25;;
73940;SDS011;62294;48.554;10.202;2023-07-09T07:02:50;10.90;;;4.18;;
73940;SDS011;62294;48.554;10.202;2023-07-09T07:05:17;8.80;;;4.35;;
73940;SDS011;62294;48.554;10.202;2023-07-09T07:07:44;10.15;;;4.47;;
73940;SDS011;62294;48.554;10.202;2023-07-09T07:10:11;8.23;;;4.45;;
73940;SDS011;62294;48.554;10.202;2023-07-09T07:12:44;6.35;;;4.15;;
73940;SDS011;62294;48.554;10.202;2023-07-09T07:15:16;10.18;;;4.60;;
73940;SDS011;62294;48.554;10.202;2023-07-09T07:17:43;8.43;;;4.30;;
73940;SDS011;62294;48.554;10.202;2023-07-09T07:20:11;9.32;;;4.95;;
73940;SDS011;62294;48.554;10.202;2023-07-09T07:22:39;5.93;;;3.88;;
73940;SDS011;62294;48.554;10.202;2023-07-09T07:25:06;7.10;;;4.47;;
73940;SDS011;62294;48.554;10.202;2023-07-09T07:27:34;5.50;;;4.03;;
73940;SDS011;62294;48.554;10.202;2023-07-09T07:30:02;12.85;;;4.63;;
73940;SDS011;62294;48.554;10.202;2023-07-09T07:32:29;6.00;;;3.45;;
73940;SDS011;62294;48.554;10.202;2023-07-09T07:34:56;6.10;;;3.88;;
73940;SDS011;62294;48.554;10.202;2023-07-09T07:37:22;5.55;;;3.90;;
73940;SDS011;62294;48.554;10.202;2023-07-09T07:39:49;9.65;;;4.53;;
73940;SDS011;62294;48.554;10.202;2023-07-09T07:42:16;7.25;;;3.97;;
73940;SDS011;62294;48.554;10.202;2023-07-09T07:44:43;7.60;;;3.80;;
73940;SDS011;62294;48.554;10.202;2023-07-09T07:47:09;6.18;;;3.90;;
73940;SDS011;62294;48.554;10.202;2023-07-09T07:49:38;7.18;;;3.92;;
73940;SDS011;62294;48.554;10.202;2023-07-09T07:52:05;5.07;;;3.17;;
73940;SDS011;62294;48.554;10.202;2023-07-09T07:54:33;5.05;;;3.65;;
73940;SDS011;62294;48.554;10.202;2023-07-09T07:57:00;6.97;;;4.13;;
73940;SDS011;62294;48.554;10.202;2023-07-09T07:59:27;7.47;;;3.95;;
73940;SDS011;62294;48.554;10.202;2023-07-09T08:01:54;6.03;;;3.72;;
73940;SDS011;62294;48.554;10.202;2023-07-09T08:04:21;5.90;;;3.20;;
73940;SDS011;62294;48.554;10.202;2023-07-09T08:06:48;6.43;;;3.60;;
73940;SDS011;62294;48.554;10.202;2023-07-09T08:09:15;5.15;;;3.33;;
73940;SDS011;62294;48.554;10.202;2023-07-09T08:11:42;5.72;;;3.80;;
73940;SDS011;62294;48.554;10.202;2023-07-09T08:14:09;7.18;;;4.20;;
73940;SDS011;62294;48.554;10.202;2023-07-09T08:16:37;6.55;;;4.07;;
73940;SDS011;62294;48.554;10.202;2023-07-09T08:19:04;5.60;;;3.78;;
73940;SDS011;62294;48.554;10.202;2023-07-09T08:21:31;4.43;;;3.08;;
73940;SDS011;62294;48.554;10.202;2023-07-09T08:23:58;6.50;;;3.47;;
73940;SDS011;62294;48.554;10.202;2023-07-09T08:26:25;6.47;;;3.30;;
73940;SDS011;62294;48.554;10.202;2023-07-09T08:28:51;7.10;;;3.30;;
73940;SDS011;62294;48.554;10.202;2023-07-09T08:31:19;6.38;;;2.97;;
73940;SDS011;62294;48.554;10.202;2023-07-09T08:33:46;4.38;;;3.17;;
73940;SDS011;62294;48.554;10.202;2023-07-09T08:36:13;7.97;;;3.45;;
73940;SDS011;62294;48.554;10.202;2023-07-09T08:38:39;7.20;;;3.10;;
73940;SDS011;62294;48.554;10.202;2023-07-09T08:48:42;5.57;;;3.30;;
73940;SDS011;62294;48.554;10.202;2023-07-09T08:51:14;5.63;;;3.30;;
73940;SDS011;62294;48.554;10.202;2023-07-09T08:53:45;8.60;;;3.70;;
73940;SDS011;62294;48.554;10.202;2023-07-09T08:56:17;4.72;;;2.42;;
73940;SDS011;62294;48.554;10.202;2023-07-09T08:58:44;4.68;;;2.80;;
73940;SDS011;62294;48.554;10.202;2023-07-09T09:01:17;5.25;;;2.88;;
73940;SDS011;62294;48.554;10.202;2023-07-09T09:04:20;5.53;;;3.03;;
73940;SDS011;62294;48.554;10.202;2023-07-09T09:07:08;6.68;;;2.90;;
73940;SDS011;62294;48.554;10.202;2023-07-09T09:09:58;6.18;;;2.95;;
73940;SDS011;62294;48.554;10.202;2023-07-09T09:12:30;6.40;;;3.00;;
73940;SDS011;62294;48.554;10.202;2023-07-09T09:15:13;4.07;;;2.45;;
73940;SDS011;62294;48.554;10.202;2023-07-09T09:17:42;5.72;;;2.67;;
73940;SDS011;62294;48.554;10.202;2023-07-09T09:20:21;4.38;;;3.00;;
73940;SDS011;62294;48.554;10.202;2023-07-09T09:22:50;5.47;;;2.95;;
73940;SDS011;62294;48.554;10.202;2023-07-09T09:25:23;6.78;;;3.80;;
73940;SDS011;62294;48.554;10.202;2023-07-09T09:27:53;4.10;;;2.47;;
73940;SDS011;62294;48.554;10.202;2023-07-09T09:30:21;3.70;;;2.35;;
73940;SDS011;62294;48.554;10.202;2023-07-09T09:32:57;5.43;;;2.60;;
73940;SDS011;62294;48.554;10.202;2023-07-09T09:35:29;5.70;;;2.83;;
73940;SDS011;62294;48.554;10.202;2023-07-09T09:40:26;6.20;;;2.63;;
73940;SDS011;62294;48.554;10.202;2023-07-09T09:42:56;5.63;;;2.55;;
73940;SDS011;62294;48.554;10.202;2023-07-09T09:45:26;6.15;;;2.78;;
73940;SDS011;62294;48.554;10.202;2023-07-09T09:47:58;7.40;;;2.65;;
73940;SDS011;62294;48.554;10.202;2023-07-09T09:50:30;6.65;;;3.00;;
73940;SDS011;62294;48.554;10.202;2023-07-09T09:52:58;4.65;;;2.25;;
73940;SDS011;62294;48.554;10.202;2023-07-09T09:55:28;4.03;;;2.50;;
73940;SDS011;62294;48.554;10.202;2023-07-09T09:57:56;8.07;;;2.72;;
73940;SDS011;62294;48.554;10.202;2023-07-09T10:00:26;5.57;;;3.10;;
73940;SDS011;62294;48.554;10.202;2023-07-09T10:02:59;4.53;;;2.55;;
73940;SDS011;62294;48.554;10.202;2023-07-09T10:05:33;5.95;;;2.75;;
73940;SDS011;62294;48.554;10.202;2023-07-09T10:08:08;4.35;;;2.53;;
73940;SDS011;62294;48.554;10.202;2023-07-09T10:10:38;3.97;;;2.40;;
73940;SDS011;62294;48.554;10.202;2023-07-09T10:13:17;7.28;;;2.88;;
73940;SDS011;62294;48.554;10.202;2023-07-09T10:21:10;5.20;;;2.33;;
73940;SDS011;62294;48.554;10.202;2023-07-09T10:23:51;5.90;;;2.72;;
73940;SDS011;62294;48.554;10.202;2023-07-09T10:32:59;7.32;;;2.50;;
73940;SDS011;62294;48.554;10.202;2023-07-09T10:40:53;6.47;;;2.97;;
73940;SDS011;62294;48.554;10.202;2023-07-09T10:46:15;5.25;;;3.00;;
73940;SDS011;62294;48.554;10.202;2023-07-09T10:48:46;5.32;;;3.10;;
73940;SDS011;62294;48.554;10.202;2023-07-09T10:51:18;4.78;;;2.60;;
73940;SDS011;62294;48.554;10.202;2023-07-09T10:54:00;5.40;;;2.55;;
73940;SDS011;62294;48.554;10.202;2023-07-09T10:56:35;5.40;;;2.42;;
73940;SDS011;62294;48.554;10.202;2023-07-09T11:01:54;5.38;;;2.65;;
73940;SDS011;62294;48.554;10.202;2023-07-09T11:07:17;4.97;;;2.78;;
73940;SDS011;62294;48.554;10.202;2023-07-09T11:09:48;4.97;;;2.50;;
73940;SDS011;62294;48.554;10.202;2023-07-09T11:15:04;6.15;;;2.58;;
73940;SDS011;62294;48.554;10.202;2023-07-09T11:17:37;3.53;;;2.17;;
73940;SDS011;62294;48.554;10.202;2023-07-09T11:20:14;4.88;;;2.53;;
73940;SDS011;62294;48.554;10.202;2023-07-09T11:22:50;4.95;;;2.55;;
73940;SDS011;62294;48.554;10.202;2023-07-09T11:25:27;7.03;;;2.70;;
73940;SDS011;62294;48.554;10.202;2023-07-09T11:28:04;5.53;;;2.10;;
73940;SDS011;62294;48.554;10.202;2023-07-09T11:30:32;7.03;;;2.60;;
73940;SDS011;62294;48.554;10.202;2023-07-09T11:33:03;6.10;;;2.50;;
73940;SDS011;62294;48.554;10.202;2023-07-09T11:35:50;4.55;;;2.35;;
73940;SDS011;62294;48.554;10.202;2023-07-09T11:38:38;3.72;;;2.05;;
73940;SDS011;62294;48.554;10.202;2023-07-09T11:44:14;3.88;;;2.28;;
73940;SDS011;62294;48.554;10.202;2023-07-09T11:46:47;3.70;;;2.35;;
73940;SDS011;62294;48.554;10.202;2023-07-09T11:49:26;4.75;;;2.30;;
73940;SDS011;62294;48.554;10.202;2023-07-09T11:52:03;3.80;;;1.87;;
73940;SDS011;62294;48.554;10.202;2023-07-09T11:54:36;3.45;;;1.95;;
73940;SDS011;62294;48.554;10.202;2023-07-09T11:57:05;4.82;;;2.50;;
73940;SDS011;62294;48.554;10.202;2023-07-09T11:59:38;4.65;;;2.30;;
73940;SDS011;62294;48.554;10.202;2023-07-09T12:02:13;5.70;;;2.28;;
73940;SDS011;62294;48.554;10.202;2023-07-09T12:04:43;5.00;;;1.92;;
73940;SDS011;62294;48.554;10.202;2023-07-09T12:07:12;6.47;;;2.78;;
73940;SDS011;62294;48.554;10.202;2023-07-09T12:09:41;7.65;;;2.40;;
73940;SDS011;62294;48.554;10.202;2023-07-09T12:12:17;4.13;;;2.00;;
73940;SDS011;62294;48.554;10.202;2023-07-09T12:14:46;4.97;;;2.38;;
73940;SDS011;62294;48.554;10.202;2023-07-09T12:17:12;5.82;;;2.65;;
73940;SDS011;62294;48.554;10.202;2023-07-09T12:19:39;5.57;;;2.55;;
73940;SDS011;62294;48.554;10.202;2023-07-09T12:22:08;4.90;;;2.30;;
73940;SDS011;62294;48.554;10.202;2023-07-09T12:24:42;7.07;;;2.20;;
73940;SDS011;62294;48.554;10.202;2023-07-09T12:27:31;4.18;;;2.25;;
73940;SDS011;62294;48.554;10.202;2023-07-09T12:30:09;4.95;;;2.17;;
73940;SDS011;62294;48.554;10.202;2023-07-09T12:32:44;4.20;;;2.35;;
73940;SDS011;62294;48.554;10.202;2023-07-09T12:35:13;5.40;;;2.20;;
73940;SDS011;62294;48.554;10.202;2023-07-09T12:37:41;5.00;;;2.53;;
73940;SDS011;62294;48.554;10.202;2023-07-09T12:42:42;6.50;;;2.72;;
73940;SDS011;62294;48.554;10.202;2023-07-09T12:45:13;5.30;;;3.00;;
73940;SDS011;62294;48.554;10.202;2023-07-09T12:47:45;4.55;;;2.35;;
73940;SDS011;62294;48.554;10.202;2023-07-09T12:53:01;4.13;;;2.15;;
73940;SDS011;62294;48.554;10.202;2023-07-09T12:55:38;5.70;;;2.45;;
73940;SDS011;62294;48.554;10.202;2023-07-09T12:58:16;4.38;;;2.40;;
73940;SDS011;62294;48.554;10.202;2023-07-09T13:00:54;5.18;;;2.45;;
73940;SDS011;62294;48.554;10.202;2023-07-09T13:03:29;3.75;;;2.28;;
73940;SDS011;62294;48.554;10.202;2023-07-09T13:05:58;4.57;;;2.88;;
73940;SDS011;62294;48.554;10.202;2023-07-09T13:08:32;7.35;;;2.85;;
73940;SDS011;62294;48.554;10.202;2023-07-09T13:11:16;5.68;;;2.63;;
73940;SDS011;62294;48.554;10.202;2023-07-09T13:14:05;6.07;;;2.60;;
73940;SDS011;62294;48.554;10.202;2023-07-09T13:16:38;6.47;;;2.50;;
73940;SDS011;62294;48.554;10.202;2023-07-09T13:19:10;5.47;;;2.22;;
73940;SDS011;62294;48.554;10.202;2023-07-09T13:21:37;4.82;;;2.75;;
73940;SDS011;62294;48.554;10.202;2023-07-09T13:24:20;7.97;;;2.67;;
73940;SDS011;62294;48.554;10.202;2023-07-09T13:26:50;4.78;;;2.50;;
73940;SDS011;62294;48.554;10.202;2023-07-09T13:29:18;5.82;;;2.63;;
73940;SDS011;62294;48.554;10.202;2023-07-09T13:31:46;6.75;;;2.40;;
73940;SDS011;62294;48.554;10.202;2023-07-09T13:34:24;4.38;;;2.38;;
73940;SDS011;62294;48.554;10.202;2023-07-09T13:36:53;5.47;;;2.53;;
73940;SDS011;62294;48.554;10.202;2023-07-09T13:39:22;4.93;;;2.80;;
73940;SDS011;62294;48.554;10.202;2023-07-09T13:41:53;4.82;;;2.55;;
73940;SDS011;62294;48.554;10.202;2023-07-09T13:44:21;5.03;;;2.50;;
73940;SDS011;62294;48.554;10.202;2023-07-09T13:46:53;4.80;;;2.60;;
73940;SDS011;62294;48.554;10.202;2023-07-09T13:49:23;4.78;;;2.53;;
73940;SDS011;62294;48.554;10.202;2023-07-09T13:51:51;6.15;;;3.00;;
73940;SDS011;62294;48.554;10.202;2023-07-09T13:54:24;5.22;;;2.97;;
73940;SDS011;62294;48.554;10.202;2023-07-09T13:56:52;7.13;;;2.58;;
73940;SDS011;62294;48.554;10.202;2023-07-09T13:59:22;5.15;;;3.13;;
73940;SDS011;62294;48.554;10.202;2023-07-09T14:01:52;4.63;;;2.47;;
73940;SDS011;62294;48.554;10.202;2023-07-09T14:04:22;5.65;;;2.72;;
73940;SDS011;62294;48.554;10.202;2023-07-09T14:06:49;6.93;;;2.90;;
73940;SDS011;62294;48.554;10.202;2023-07-09T14:09:16;6.45;;;2.92;;
73940;SDS011;62294;48.554;10.202;2023-07-09T14:11:47;5.30;;;2.60;;
73940;SDS011;62294;48.554;10.202;2023-07-09T14:14:19;5.60;;;2.53;;
73940;SDS011;62294;48.554;10.202;2023-07-09T14:17:12;4.78;;;2.50;;
73940;SDS011;62294;48.554;10.202;2023-07-09T14:19:38;5.22;;;3.00;;
73940;SDS011;62294;48.554;10.202;2023-07-09T14:22:28;5.63;;;3.13;;
73940;SDS011;62294;48.554;10.202;2023-07-09T14:25:02;5.70;;;2.85;;
73940;SDS011;62294;48.554;10.202;2023-07-09T14:27:31;8.25;;;2.92;;
73940;SDS011;62294;48.554;10.202;2023-07-09T14:29:58;4.20;;;2.78;;
73940;SDS011;62294;48.554;10.202;2023-07-09T14:35:01;5.75;;;2.78;;
73940;SDS011;62294;48.554;10.202;2023-07-09T14:37:30;6.72;;;2.70;;
73940;SDS011;62294;48.554;10.202;2023-07-09T14:39:56;6.00;;;2.63;;
73940;SDS011;62294;48.554;10.202;2023-07-09T14:42:23;6.93;;;2.80;;
73940;SDS011;62294;48.554;10.202;2023-07-09T14:44:50;8.15;;;2.90;;
73940;SDS011;62294;48.554;10.202;2023-07-09T14:47:18;4.22;;;2.70;;
73940;SDS011;62294;48.554;10.202;2023-07-09T14:49:47;6.30;;;2.72;;
73940;SDS011;62294;48.554;10.202;2023-07-09T14:52:16;5.22;;;2.65;;
73940;SDS011;62294;48.554;10.202;2023-07-09T14:54:45;5.07;;;2.58;;
73940;SDS011;62294;48.554;10.202;2023-07-09T14:57:18;6.83;;;2.90;;
73940;SDS011;62294;48.554;10.202;2023-07-09T14:59:46;5.72;;;2.65;;
73940;SDS011;62294;48.554;10.202;2023-07-09T15:02:30;5.65;;;2.75;;
73940;SDS011;62294;48.554;10.202;2023-07-09T15:05:01;4.93;;;2.70;;
73940;SDS011;62294;48.554;10.202;2023-07-09T15:07:30;6.13;;;3.17;;
73940;SDS011;62294;48.554;10.202;2023-07-09T15:09:57;5.80;;;2.63;;
73940;SDS011;62294;48.554;10.202;2023-07-09T15:12:28;4.22;;;2.20;;
73940;SDS011;62294;48.554;10.202;2023-07-09T15:15:01;6.80;;;2.40;;
73940;SDS011;62294;48.554;10.202;2023-07-09T15:17:38;6.35;;;3.22;;
73940;SDS011;62294;48.554;10.202;2023-07-09T15:20:05;5.28;;;2.92;;
73940;SDS011;62294;48.554;10.202;2023-07-09T15:22:38;6.97;;;2.97;;
73940;SDS011;62294;48.554;10.202;2023-07-09T15:25:08;6.80;;;2.72;;
73940;SDS011;62294;48.554;10.202;2023-07-09T15:27:39;7.72;;;3.00;;
73940;SDS011;62294;48.554;10.202;2023-07-09T15:30:12;6.70;;;3.08;;
73940;SDS011;62294;48.554;10.202;2023-07-09T15:32:44;5.93;;;2.90;;
73940;SDS011;62294;48.554;10.202;2023-07-09T15:35:12;5.20;;;2.67;;
73940;SDS011;62294;48.554;10.202;2023-07-09T15:37:39;7.80;;;3.05;;
73940;SDS011;62294;48.554;10.202;2023-07-09T15:40:17;4.55;;;2.50;;
73940;SDS011;62294;48.554;10.202;2023-07-09T15:42:51;8.18;;;2.97;;